createdAt,value
2018-03-14T00:01:41.820Z,6.23
2018-03-14T00:06:43.190Z,5.40
2018-03-14T00:11:44.553Z,3.73
2018-03-14T00:16:45.964Z,4.00
2018-03-14T00:21:47.336Z,4.47
2018-03-14T00:26:48.720Z,3.97
2018-03-14T00:31:50.115Z,6.50
2018-03-14T00:36:52.245Z,4.87
2018-03-14T00:41:53.612Z,4.20
2018-03-14T00:46:55.745Z,6.10
2018-03-14T00:51:57.135Z,7.80
2018-03-14T00:56:58.555Z,12.33
2018-03-14T01:01:59.979Z,13.27
2018-03-14T01:07:01.368Z,3.37
2018-03-14T01:12:02.747Z,10.20
2018-03-14T01:17:04.163Z,4.33
2018-03-14T01:22:06.268Z,6.23
2018-03-14T01:27:07.665Z,4.90
2018-03-14T01:32:09.776Z,3.67
2018-03-14T01:37:11.903Z,10.33
2018-03-14T01:42:13.331Z,11.57
2018-03-14T01:47:14.692Z,7.70
2018-03-14T01:52:16.073Z,5.27
2018-03-14T01:57:17.439Z,5.50
2018-03-14T02:02:18.836Z,7.17
2018-03-14T02:07:20.242Z,3.83
2018-03-14T02:12:21.644Z,11.53
2018-03-14T02:17:23.023Z,4.73
2018-03-14T02:22:24.459Z,3.40
2018-03-14T02:27:25.812Z,4.40
2018-03-14T02:32:27.159Z,7.23
2018-03-14T02:37:28.544Z,6.13
2018-03-14T02:42:30.035Z,7.10
2018-03-14T02:47:31.387Z,7.00
2018-03-14T02:52:33.528Z,4.60
2018-03-14T02:57:34.897Z,13.60
2018-03-14T03:02:36.231Z,5.37
2018-03-14T03:07:37.603Z,5.70
2018-03-14T03:12:38.960Z,8.67
2018-03-14T03:17:40.307Z,6.80
2018-03-14T03:22:41.679Z,9.83
2018-03-14T03:27:43.059Z,6.27
2018-03-14T03:32:44.402Z,4.67
2018-03-14T03:37:46.479Z,6.00
2018-03-14T03:42:47.819Z,8.33
2018-03-14T03:47:49.220Z,5.73
2018-03-14T03:52:50.618Z,4.87
2018-03-14T03:57:51.980Z,7.80
2018-03-14T04:02:54.094Z,6.73
2018-03-14T04:07:55.471Z,4.17
2018-03-14T04:12:57.602Z,7.40
2018-03-14T04:17:59.008Z,3.17
2018-03-14T04:23:00.411Z,3.80
2018-03-14T04:28:01.763Z,9.90
2018-03-14T04:33:03.110Z,5.67
2018-03-14T04:38:04.492Z,3.73
2018-03-14T04:43:05.855Z,5.83
2018-03-14T04:48:07.315Z,11.80
2018-03-14T04:53:08.691Z,7.67
2018-03-14T04:58:10.039Z,8.13
2018-03-14T05:03:11.391Z,7.00
2018-03-14T05:08:13.503Z,14.03
2018-03-14T05:13:15.582Z,4.87
2018-03-14T05:18:17.052Z,14.30
2018-03-14T05:23:19.149Z,12.43
2018-03-14T05:28:20.503Z,8.63
2018-03-14T05:33:21.976Z,4.40
2018-03-14T05:38:24.097Z,6.20
2018-03-14T05:43:26.235Z,4.27
2018-03-14T05:48:27.593Z,5.93
2018-03-14T05:53:28.958Z,7.93
2018-03-14T05:58:31.417Z,5.70
2018-03-14T06:03:33.434Z,13.40
2018-03-14T06:08:35.880Z,8.77
2018-03-14T06:13:38.210Z,8.73
2018-03-14T06:18:40.400Z,7.27
2018-03-14T06:23:42.694Z,4.40
2018-03-14T06:28:45.011Z,8.03
2018-03-14T06:33:48.000Z,11.33
2018-03-14T06:38:50.394Z,7.00
2018-03-14T06:43:52.276Z,6.50
2018-03-14T06:48:54.501Z,5.53
2018-03-14T06:53:56.611Z,10.80
2018-03-14T06:59:16.884Z,7.73
2018-03-14T07:04:37.127Z,10.80
2018-03-14T07:09:38.662Z,10.90
2018-03-14T07:14:41.026Z,11.40
2018-03-14T07:19:43.255Z,5.20
2018-03-14T07:24:46.957Z,8.30
2018-03-14T07:29:49.636Z,10.77
2018-03-14T07:34:51.916Z,12.57
2018-03-14T07:39:53.742Z,8.43
2018-03-14T07:44:55.554Z,4.30
2018-03-14T07:49:57.516Z,7.90
2018-03-14T07:54:59.465Z,12.23
2018-03-14T08:00:02.477Z,3.93
2018-03-14T08:05:04.717Z,9.20
2018-03-14T08:10:07.071Z,7.73
2018-03-14T08:15:09.088Z,8.63
2018-03-14T08:20:11.217Z,5.83
2018-03-14T08:25:14.259Z,11.20
2018-03-14T08:30:16.267Z,10.33
2018-03-14T08:35:18.265Z,12.73
2018-03-14T08:40:20.510Z,4.50
2018-03-14T08:45:23.046Z,8.77
2018-03-14T08:50:26.268Z,5.20
2018-03-14T08:55:28.586Z,8.00
2018-03-14T09:00:30.852Z,13.03
2018-03-14T09:05:32.925Z,8.80
2018-03-14T09:10:35.166Z,6.77
2018-03-14T09:15:37.258Z,10.70
2018-03-14T09:20:38.678Z,14.93
2018-03-14T09:25:40.620Z,10.70
2018-03-14T09:30:43.115Z,8.30
2018-03-14T09:35:46.539Z,5.90
2018-03-14T09:40:48.508Z,7.53
2018-03-14T09:46:05.133Z,10.00
2018-03-14T09:51:08.561Z,6.77
2018-03-14T09:56:10.662Z,2.97
2018-03-14T10:01:12.564Z,4.00
2018-03-14T10:06:13.926Z,5.90
2018-03-14T10:11:15.267Z,4.70
2018-03-14T10:16:17.392Z,9.00
2018-03-14T10:21:18.832Z,3.67
2018-03-14T10:26:20.212Z,1.40
2018-03-14T10:31:21.573Z,3.33
2018-03-14T10:36:22.940Z,10.67
2018-03-14T10:41:25.084Z,2.07
2018-03-14T10:46:26.460Z,2.03
2018-03-14T10:51:27.809Z,2.23
2018-03-14T10:56:29.601Z,10.03
2018-03-14T11:01:37.201Z,5.90
2018-03-14T11:06:39.015Z,5.73
2018-03-14T11:11:40.441Z,2.07
2018-03-14T11:16:41.815Z,9.33
2018-03-14T11:21:43.213Z,3.90
2018-03-14T11:26:44.979Z,5.80
2018-03-14T11:31:48.437Z,3.83
2018-03-14T11:36:50.039Z,11.93
2018-03-14T11:41:51.440Z,5.60
2018-03-14T11:46:52.872Z,5.37
2018-03-14T11:51:54.648Z,7.10
2018-03-14T11:56:56.027Z,11.33
2018-03-14T12:01:57.366Z,10.83
2018-03-14T12:06:58.790Z,11.00
2018-03-14T12:12:00.317Z,7.17
2018-03-14T12:17:02.414Z,7.83
2018-03-14T12:22:03.807Z,9.77
2018-03-14T12:27:05.253Z,5.40
2018-03-14T12:32:06.798Z,10.03
2018-03-14T12:37:08.903Z,4.00
2018-03-14T12:42:10.339Z,10.70
2018-03-14T12:47:11.785Z,5.50
2018-03-14T12:52:13.430Z,5.53
2018-03-14T12:57:15.660Z,5.70
2018-03-14T13:02:17.048Z,4.30
2018-03-14T13:07:18.447Z,5.50
2018-03-14T13:12:20.668Z,6.70
2018-03-14T13:17:22.052Z,5.27
2018-03-14T13:22:23.422Z,6.67
2018-03-14T13:27:24.816Z,7.70
2018-03-14T13:32:26.339Z,8.60
2018-03-14T13:37:27.821Z,6.13
2018-03-14T13:42:29.362Z,7.00
2018-03-14T13:47:31.521Z,4.63
2018-03-14T13:52:32.859Z,18.37
2018-03-14T13:57:35.102Z,4.90
2018-03-14T14:02:36.508Z,5.33
2018-03-14T14:07:37.872Z,6.70
2018-03-14T14:12:39.244Z,5.67
2018-03-14T14:17:40.609Z,9.47
2018-03-14T14:22:42.012Z,6.30
2018-03-14T14:27:44.851Z,12.17
2018-03-14T14:32:46.258Z,5.10
2018-03-14T14:37:47.633Z,10.13
2018-03-14T14:42:50.578Z,4.93
2018-03-14T14:47:51.979Z,5.17
2018-03-14T14:52:53.324Z,5.63
2018-03-14T14:57:54.808Z,8.30
2018-03-14T15:02:56.232Z,8.90
2018-03-14T15:07:58.447Z,9.73
2018-03-14T15:13:00.068Z,14.93
2018-03-14T15:18:01.414Z,13.50
2018-03-14T15:23:03.516Z,12.00
2018-03-14T15:28:04.850Z,20.50
2018-03-14T15:33:06.195Z,15.33
2018-03-14T15:38:08.329Z,14.70
2018-03-14T15:43:09.685Z,19.30
2018-03-14T15:48:11.059Z,16.93
2018-03-14T15:53:12.403Z,19.20
2018-03-14T15:58:13.759Z,30.80
2018-03-14T16:03:15.148Z,20.23
2018-03-14T16:08:16.553Z,15.90
2018-03-14T16:13:19.283Z,13.83
2018-03-14T16:18:21.573Z,17.10
2018-03-14T16:23:24.007Z,12.70
2018-03-14T16:28:26.484Z,12.00
2018-03-14T16:33:28.249Z,12.67
2018-03-14T16:38:30.194Z,13.20
2018-03-14T16:43:33.627Z,13.60
2018-03-14T16:48:37.030Z,16.53
2018-03-14T16:53:38.797Z,14.60
2018-03-14T16:58:40.476Z,12.97
2018-03-14T17:03:42.972Z,22.20
2018-03-14T17:08:44.524Z,11.20
2018-03-14T17:13:45.964Z,13.90
2018-03-14T17:18:47.446Z,25.93
2018-03-14T17:23:49.298Z,64.20
2018-03-14T17:28:51.787Z,28.27
2018-03-14T17:33:54.146Z,26.53
2018-03-14T17:38:55.945Z,34.63
2018-03-14T17:43:57.900Z,14.37
2018-03-14T17:48:59.352Z,18.43
2018-03-14T17:54:00.944Z,23.87
2018-03-14T17:59:02.613Z,14.80
2018-03-14T18:04:05.152Z,19.57
2018-03-14T18:14:40.883Z,26.73
2018-03-14T18:19:43.417Z,21.37
2018-03-14T18:24:44.898Z,20.53
2018-03-14T18:29:46.475Z,17.93
2018-03-14T18:34:48.226Z,15.23
2018-03-14T18:39:49.745Z,14.00
2018-03-14T18:44:54.433Z,14.93
2018-03-14T18:49:56.695Z,14.80
2018-03-14T18:54:58.785Z,17.37
2018-03-14T19:00:00.141Z,11.23
2018-03-14T19:05:02.504Z,8.40
2018-03-14T19:10:03.876Z,12.70
2018-03-14T19:15:05.370Z,8.50
2018-03-14T19:20:07.559Z,13.03
2018-03-14T19:25:09.776Z,7.20
2018-03-14T19:30:11.970Z,7.43
2018-03-14T19:35:14.630Z,8.33
2018-03-14T19:40:15.991Z,9.17
2018-03-14T19:45:18.076Z,9.63
2018-03-14T19:50:19.690Z,14.00
2018-03-14T19:55:21.800Z,12.13
2018-03-14T20:00:23.877Z,13.63
2018-03-14T20:05:25.343Z,14.20
2018-03-14T20:10:26.713Z,13.80
2018-03-14T20:15:28.056Z,12.73
2018-03-14T20:20:29.479Z,14.70
2018-03-14T20:25:32.441Z,10.20
2018-03-14T20:30:33.821Z,21.80
2018-03-14T20:35:35.251Z,16.27
2018-03-14T20:40:36.649Z,17.70
2018-03-14T20:45:38.062Z,19.17
2018-03-14T20:50:39.431Z,19.57
2018-03-14T20:55:40.897Z,20.40
2018-03-14T21:00:42.290Z,22.37
2018-03-14T21:05:43.734Z,24.13
2018-03-14T21:10:45.853Z,27.40
2018-03-14T21:15:47.254Z,29.63
2018-03-14T21:20:48.592Z,26.70
2018-03-14T21:25:50.026Z,27.27
2018-03-14T21:30:51.372Z,27.93
2018-03-14T21:35:52.731Z,24.87
2018-03-14T21:40:54.089Z,19.70
2018-03-14T21:45:55.443Z,22.53
2018-03-14T21:50:56.829Z,23.10
2018-03-14T21:55:58.145Z,17.03
2018-03-14T22:01:00.328Z,19.60
2018-03-14T22:06:01.739Z,13.97
2018-03-14T22:11:03.156Z,10.70
2018-03-14T22:16:04.769Z,14.33
2018-03-14T22:21:06.229Z,12.13
2018-03-14T22:26:07.720Z,9.67
2018-03-14T22:31:09.849Z,15.07
2018-03-14T22:36:11.256Z,11.97
2018-03-14T22:41:12.667Z,11.30
2018-03-14T22:46:14.042Z,10.43
2018-03-14T22:51:15.429Z,11.93
2018-03-14T22:56:16.830Z,11.60
2018-03-14T23:01:18.204Z,16.37
2018-03-14T23:06:19.687Z,11.53
2018-03-14T23:11:21.045Z,9.97
2018-03-14T23:16:22.504Z,10.40
2018-03-14T23:21:23.909Z,9.07
2018-03-14T23:26:25.333Z,8.53
2018-03-14T23:31:26.709Z,12.40
2018-03-14T23:36:28.102Z,11.93
2018-03-14T23:41:29.482Z,9.20
2018-03-14T23:46:30.812Z,10.43
2018-03-14T23:51:32.175Z,17.57
2018-03-14T23:56:33.568Z,16.90
